createdAt,value
2017-03-12T00:00:38.634Z,53.60
2017-03-12T00:01:27.898Z,53.70
2017-03-12T00:02:29.094Z,53.70
2017-03-12T00:03:34.664Z,53.70
2017-03-12T00:04:27.611Z,is
2017-03-12T00:05:37.632Z,53.70
2017-03-12T00:06:41.942Z,53.70
2017-03-12T00:07:26.796Z,53.70
2017-03-12T00:08:30.172Z,53.70
2017-03-12T00:09:38.159Z,53.60
2017-03-12T00:10:32.901Z,53.70
2017-03-12T00:11:28.851Z,53.70
2017-03-12T00:12:28.895Z,53.70
2017-03-12T00:13:29.582Z,53.70
2017-03-12T00:14:32.800Z,is
2017-03-12T00:15:26.822Z,53.70
2017-03-12T00:16:26.772Z,53.70
2017-03-12T00:17:27.801Z,53.60
2017-03-12T00:18:33.077Z,53.60
2017-03-12T00:19:29.659Z,53.70
2017-03-12T00:20:29.548Z,53.70
2017-03-12T00:21:24.655Z,53.70
2017-03-12T00:22:28.835Z,53.70
2017-03-12T00:23:23.105Z,53.70
2017-03-12T00:24:33.619Z,53.70
2017-03-12T00:25:34.168Z,53.70
2017-03-12T00:26:27.144Z,53.70
2017-03-12T00:27:26.840Z,53.60
2017-03-12T00:28:33.218Z,53.70
2017-03-12T00:29:32.969Z,53.70
2017-03-12T00:30:28.850Z,53.70
2017-03-12T00:31:27.874Z,53.70
2017-03-12T00:32:28.599Z,54.30
2017-03-12T00:33:28.606Z,53.70
2017-03-12T00:34:28.606Z,53.70
2017-03-12T00:35:28.997Z,53.70
2017-03-12T00:36:43.924Z,53.80
2017-03-12T00:37:27.624Z,53.70
2017-03-12T00:38:45.941Z,53.80
2017-03-12T00:39:29.967Z,53.70
2017-03-12T00:40:32.954Z,53.60
2017-03-12T00:41:37.575Z,53.70
2017-03-12T00:42:29.438Z,53.70
2017-03-12T00:43:23.286Z,53.70
2017-03-12T00:44:47.233Z,53.70
2017-03-12T00:45:36.140Z,53.80
2017-03-12T00:46:37.568Z,53.70
2017-03-12T00:47:43.558Z,53.70
2017-03-12T00:48:23.558Z,53.70
2017-03-12T00:49:27.665Z,53.80
2017-03-12T00:50:27.218Z,is
2017-03-12T00:51:28.745Z,53.70
2017-03-12T00:52:28.595Z,53.70
2017-03-12T00:53:38.770Z,53.70
2017-03-12T00:54:28.249Z,53.80
2017-03-12T00:55:29.282Z,53.70
2017-03-12T00:56:29.198Z,53.80
2017-03-12T00:57:29.166Z,53.80
2017-03-12T00:58:38.222Z,53.80
2017-03-12T00:59:28.496Z,53.90
2017-03-12T01:00:31.816Z,53.80
2017-03-12T01:01:32.991Z,53.70
2017-03-12T01:02:35.856Z,53.80
2017-03-12T01:03:38.252Z,53.70
2017-03-12T01:04:29.164Z,53.70
2017-03-12T01:05:38.643Z,53.70
2017-03-12T01:06:28.895Z,53.70
2017-03-12T01:07:39.425Z,53.80
2017-03-12T01:08:33.006Z,53.90
2017-03-12T01:09:33.609Z,53.80
2017-03-12T01:10:29.101Z,53.90
2017-03-12T01:11:33.098Z,53.80
2017-03-12T01:12:33.382Z,53.80
2017-03-12T01:13:29.439Z,53.90
2017-03-12T01:14:38.043Z,is
2017-03-12T01:15:23.045Z,53.80
2017-03-12T01:16:29.020Z,54.00
2017-03-12T01:17:29.101Z,53.90
2017-03-12T01:18:43.339Z,53.00
2017-03-12T01:19:31.891Z,53.90
2017-03-12T01:20:38.225Z,53.90
2017-03-12T01:21:38.120Z,54.00
2017-03-12T01:22:41.025Z,54.00
2017-03-12T01:23:36.672Z,54.00
2017-03-12T01:24:36.955Z,53.90
2017-03-12T01:25:37.233Z,54.00
2017-03-12T01:26:38.019Z,53.90
2017-03-12T01:27:37.623Z,is
2017-03-12T01:28:31.940Z,54.00
2017-03-12T01:29:33.191Z,54.00
2017-03-12T01:30:29.030Z,53.90
2017-03-12T01:31:37.674Z,53.90
2017-03-12T01:32:39.201Z,54.00
2017-03-12T01:33:48.714Z,53.80
2017-03-12T01:34:37.834Z,53.80
2017-03-12T01:35:30.267Z,53.80
2017-03-12T01:36:27.826Z,is
2017-03-12T01:37:47.678Z,53.90
2017-03-12T01:38:36.636Z,53.80
2017-03-12T01:39:34.320Z,53.90
2017-03-12T01:40:28.573Z,53.80
2017-03-12T01:41:45.419Z,53.80
2017-03-12T01:42:39.003Z,53.90
2017-03-12T01:43:38.530Z,54.00
2017-03-12T01:44:43.318Z,53.90
2017-03-12T01:45:37.320Z,54.00
2017-03-12T01:46:43.564Z,53.80
2017-03-12T01:47:37.385Z,53.80
2017-03-12T01:48:31.712Z,53.80
2017-03-12T01:49:47.612Z,53.70
2017-03-12T01:50:37.225Z,53.80
2017-03-12T01:51:30.849Z,53.90
2017-03-12T01:52:42.915Z,53.80
2017-03-12T01:53:29.479Z,53.80
2017-03-12T01:54:29.188Z,53.80
2017-03-12T01:55:35.178Z,53.80
2017-03-12T01:56:29.271Z,53.80
2017-03-12T01:57:43.347Z,53.90
2017-03-12T01:58:37.296Z,53.90
2017-03-12T01:59:27.808Z,53.90
2017-03-12T02:00:28.550Z,53.90
2017-03-12T02:01:48.927Z,53.90
2017-03-12T02:02:47.098Z,53.90
2017-03-12T02:03:25.548Z,53.80
2017-03-12T02:04:29.595Z,53.80
2017-03-12T02:05:27.890Z,53.90
2017-03-12T02:06:40.655Z,53.90
2017-03-12T02:07:36.275Z,53.90
2017-03-12T02:08:34.833Z,53.90
2017-03-12T02:09:36.868Z,53.90
2017-03-12T02:10:41.415Z,53.90
2017-03-12T02:11:37.346Z,53.70
2017-03-12T02:12:38.006Z,53.70
2017-03-12T02:13:27.765Z,53.50
2017-03-12T02:14:42.654Z,is
2017-03-12T02:15:27.677Z,53.50
2017-03-12T02:16:39.041Z,53.60
2017-03-12T02:17:38.385Z,53.70
2017-03-12T02:18:32.960Z,53.60
2017-03-12T02:19:29.402Z,53.60
2017-03-12T02:20:31.703Z,53.60
2017-03-12T02:21:41.626Z,53.60
2017-03-12T02:22:47.788Z,53.60
2017-03-12T02:23:31.515Z,53.60
2017-03-12T02:24:46.529Z,53.60
2017-03-12T02:25:39.874Z,53.60
2017-03-12T02:26:29.142Z,53.70
2017-03-12T02:27:33.718Z,53.60
2017-03-12T02:28:33.387Z,53.60
2017-03-12T02:29:40.658Z,53.50
2017-03-12T02:30:36.331Z,53.50
2017-03-12T02:31:28.878Z,53.50
2017-03-12T02:32:36.970Z,53.50
2017-03-12T02:33:37.335Z,is
2017-03-12T02:34:42.859Z,53.50
2017-03-12T02:35:33.588Z,53.60
2017-03-12T02:36:48.412Z,53.50
2017-03-12T02:37:29.457Z,53.60
2017-03-12T02:38:29.194Z,53.60
2017-03-12T02:39:40.934Z,53.50
2017-03-12T02:40:28.961Z,53.60
2017-03-12T02:41:42.641Z,53.50
2017-03-12T02:42:20.432Z,53.20
2017-03-12T02:43:36.162Z,53.20
2017-03-12T02:44:27.060Z,53.10
2017-03-12T02:45:37.436Z,53.70
2017-03-12T02:46:28.766Z,53.70
2017-03-12T02:47:39.183Z,53.20
2017-03-12T02:48:39.000Z,52.70
2017-03-12T02:49:33.223Z,52.70
2017-03-12T02:50:29.664Z,56.90
2017-03-12T02:51:34.832Z,52.90
2017-03-12T02:52:39.936Z,52.70
2017-03-12T02:53:45.354Z,52.50
2017-03-12T02:54:27.221Z,52.70
2017-03-12T02:55:21.989Z,52.70
2017-03-12T02:56:26.931Z,52.70
2017-03-12T02:57:29.240Z,52.70
2017-03-12T02:58:37.332Z,52.60
2017-03-12T02:59:32.161Z,52.70
2017-03-12T03:00:37.280Z,52.60
2017-03-12T03:04:26.412Z,52.80
2017-03-12T03:05:46.029Z,52.70
2017-03-12T03:06:32.959Z,52.80
2017-03-12T03:07:23.887Z,52.60
2017-03-12T03:08:28.998Z,52.70
2017-03-12T03:09:29.067Z,52.70
2017-03-12T03:10:42.226Z,52.70
2017-03-12T03:11:36.279Z,52.60
2017-03-12T03:12:26.130Z,52.60
2017-03-12T03:13:28.986Z,52.50
2017-03-12T03:14:52.991Z,52.60
2017-03-12T03:15:58.836Z,52.60
2017-03-12T03:16:32.493Z,52.60
2017-03-12T03:17:23.968Z,52.70
2017-03-12T03:18:30.588Z,52.60
2017-03-12T03:19:30.295Z,52.60
2017-03-12T03:20:37.086Z,52.60
2017-03-12T03:23:23.421Z,52.40
2017-03-12T03:24:35.468Z,52.40
2017-03-12T03:26:34.899Z,52.50
2017-03-12T03:27:29.609Z,52.40
2017-03-12T03:28:34.715Z,52.40
2017-03-12T03:29:28.147Z,52.40
2017-03-12T03:30:30.271Z,52.30
2017-03-12T03:32:06.581Z,52.20
2017-03-12T03:32:29.921Z,52.20
2017-03-12T03:33:37.066Z,52.20
2017-03-12T03:34:30.311Z,52.20
2017-03-12T03:35:29.324Z,52.30
2017-03-12T03:36:23.124Z,52.40
2017-03-12T03:37:29.805Z,52.20
2017-03-12T03:38:20.639Z,52.20
2017-03-12T03:39:29.743Z,52.30
2017-03-12T03:40:26.920Z,52.20
2017-03-12T03:43:49.214Z,52.10
2017-03-12T03:44:42.171Z,52.10
2017-03-12T03:45:29.325Z,52.20
2017-03-12T03:46:31.649Z,52.10
2017-03-12T03:47:29.145Z,52.10
2017-03-12T03:49:41.107Z,52.00
2017-03-12T03:50:29.440Z,51.20
2017-03-12T03:51:27.763Z,51.90
2017-03-12T03:52:28.556Z,52.00
2017-03-12T03:53:38.379Z,52.00
2017-03-12T03:54:27.705Z,52.00
2017-03-12T03:55:29.484Z,52.20
2017-03-12T03:56:28.601Z,52.00
2017-03-12T03:57:27.913Z,51.90
2017-03-12T03:58:28.806Z,51.80
2017-03-12T03:59:32.974Z,51.90
2017-03-12T04:00:28.962Z,51.90
2017-03-12T04:01:37.252Z,is
2017-03-12T04:02:27.026Z,52.00
2017-03-12T04:03:27.842Z,is
2017-03-12T04:04:27.838Z,51.90
2017-03-12T04:05:33.682Z,51.90
2017-03-12T04:06:38.382Z,52.00
2017-03-12T04:08:39.568Z,52.00
2017-03-12T04:09:33.297Z,52.00
2017-03-12T04:10:29.449Z,52.10
2017-03-12T04:11:38.098Z,52.00
2017-03-12T04:12:44.310Z,52.10
2017-03-12T04:13:39.011Z,52.20
2017-03-12T04:14:29.187Z,52.10
2017-03-12T04:15:27.080Z,52.10
2017-03-12T04:16:28.728Z,52.40
2017-03-12T04:17:29.068Z,52.20
2017-03-12T04:18:30.730Z,52.20
2017-03-12T04:19:28.500Z,52.10
2017-03-12T04:20:28.876Z,52.20
2017-03-12T04:21:33.486Z,52.10
2017-03-12T04:22:29.732Z,52.00
2017-03-12T04:23:30.670Z,52.10
2017-03-12T04:24:27.892Z,52.20
2017-03-12T04:25:37.247Z,52.20
2017-03-12T04:26:36.948Z,52.20
2017-03-12T04:27:28.754Z,52.20
2017-03-12T04:28:32.590Z,52.20
2017-03-12T04:29:29.346Z,52.30
2017-03-12T04:30:28.582Z,52.30
2017-03-12T04:31:43.125Z,52.30
2017-03-12T04:32:39.362Z,52.30
2017-03-12T04:33:23.788Z,52.30
2017-03-12T04:34:32.029Z,52.30
2017-03-12T04:35:29.520Z,52.50
2017-03-12T04:36:29.201Z,52.30
2017-03-12T04:37:33.286Z,52.40
2017-03-12T04:38:27.635Z,52.40
2017-03-12T04:39:26.949Z,52.50
2017-03-12T04:40:27.611Z,52.50
2017-03-12T04:41:37.116Z,52.60
2017-03-12T04:42:32.031Z,52.60
2017-03-12T04:43:28.998Z,52.50
2017-03-12T04:44:30.722Z,52.50
2017-03-12T04:45:34.121Z,52.50
2017-03-12T04:46:35.883Z,52.70
2017-03-12T04:47:31.713Z,52.50
2017-03-12T04:48:26.985Z,52.60
2017-03-12T04:49:37.864Z,52.70
2017-03-12T04:50:28.567Z,52.70
2017-03-12T04:51:38.624Z,52.70
2017-03-12T04:52:29.346Z,52.70
2017-03-12T04:53:28.595Z,52.70
2017-03-12T04:54:29.357Z,52.80
2017-03-12T04:55:38.623Z,52.70
2017-03-12T04:56:29.557Z,52.70
2017-03-12T04:57:27.843Z,is
2017-03-12T04:58:39.182Z,52.80
2017-03-12T04:59:45.243Z,52.80
2017-03-12T05:00:39.141Z,52.80
2017-03-12T05:01:33.693Z,52.80
2017-03-12T05:02:38.172Z,52.70
2017-03-12T05:03:28.906Z,53.00
2017-03-12T05:04:29.022Z,52.90
2017-03-12T05:05:29.234Z,52.90
2017-03-12T05:06:29.220Z,52.90
2017-03-12T05:07:33.689Z,53.00
2017-03-12T05:08:27.681Z,53.00
2017-03-12T05:09:31.945Z,53.00
2017-03-12T05:10:39.130Z,is
2017-03-12T05:11:38.827Z,53.00
2017-03-12T05:12:23.267Z,52.90
2017-03-12T05:13:33.639Z,53.00
2017-03-12T05:14:29.294Z,53.00
2017-03-12T05:15:28.657Z,53.10
2017-03-12T05:16:33.370Z,52.90
2017-03-12T05:17:33.666Z,53.00
2017-03-12T05:18:29.240Z,53.00
2017-03-12T05:19:38.985Z,53.00
2017-03-12T05:20:28.172Z,53.00
2017-03-12T05:21:33.025Z,53.00
2017-03-12T05:22:38.237Z,is
2017-03-12T05:23:26.869Z,53.10
2017-03-12T05:24:40.732Z,53.10
2017-03-12T05:25:29.872Z,52.20
2017-03-12T05:26:28.725Z,53.10
2017-03-12T05:27:38.697Z,53.00
2017-03-12T05:28:28.198Z,53.00
2017-03-12T05:29:43.047Z,53.20
2017-03-12T05:30:28.337Z,53.10
2017-03-12T05:31:37.491Z,53.20
2017-03-12T05:32:34.664Z,53.20
2017-03-12T05:33:37.702Z,53.30
2017-03-12T05:34:37.420Z,53.20
2017-03-12T05:35:28.915Z,53.20
2017-03-12T05:36:27.701Z,53.30
2017-03-12T05:37:38.848Z,53.20
2017-03-12T05:38:28.835Z,53.30
2017-03-12T05:39:29.338Z,53.40
2017-03-12T05:40:38.943Z,53.20
2017-03-12T05:41:36.559Z,53.30
2017-03-12T05:42:38.705Z,53.30
2017-03-12T05:43:22.034Z,53.30
2017-03-12T05:44:36.615Z,53.30
2017-03-12T05:45:27.540Z,53.30
2017-03-12T05:46:43.169Z,53.30
2017-03-12T05:47:38.005Z,is
2017-03-12T05:48:28.883Z,53.40
2017-03-12T05:49:28.633Z,53.40
2017-03-12T05:50:29.756Z,53.50
2017-03-12T05:51:28.893Z,53.40
2017-03-12T05:52:29.772Z,53.40
2017-03-12T05:53:30.659Z,53.30
2017-03-12T05:54:34.897Z,53.50
2017-03-12T05:55:32.014Z,53.40
2017-03-12T05:56:39.495Z,53.40
2017-03-12T05:57:28.872Z,53.40
2017-03-12T05:58:33.520Z,53.30
2017-03-12T05:59:30.110Z,is
2017-03-12T06:00:29.060Z,53.50
2017-03-12T06:01:40.062Z,53.60
2017-03-12T06:02:29.069Z,53.60
2017-03-12T06:03:42.796Z,53.50
2017-03-12T06:04:38.447Z,53.50
2017-03-12T06:05:31.916Z,53.60
2017-03-12T06:06:28.078Z,54.00
2017-03-12T06:07:33.369Z,53.60
2017-03-12T06:08:36.730Z,53.60
2017-03-12T06:09:27.466Z,53.50
2017-03-12T06:10:28.388Z,53.50
2017-03-12T06:11:39.106Z,53.60
2017-03-12T06:12:28.782Z,53.70
2017-03-12T06:13:38.721Z,53.50
2017-03-12T06:14:29.161Z,53.50
2017-03-12T06:15:44.016Z,53.50
2017-03-12T06:16:29.086Z,53.40
2017-03-12T06:17:21.265Z,53.50
2017-03-12T06:18:33.162Z,53.40
2017-03-12T06:19:29.117Z,53.60
2017-03-12T06:20:28.120Z,53.50
2017-03-12T06:21:29.077Z,53.50
2017-03-12T06:22:28.871Z,53.50
2017-03-12T06:23:27.871Z,53.50
2017-03-12T06:24:38.376Z,53.50
2017-03-12T06:25:32.985Z,53.60
2017-03-12T06:26:28.914Z,53.50
2017-03-12T06:27:47.725Z,53.50
2017-03-12T06:28:37.357Z,53.50
2017-03-12T06:29:37.430Z,53.50
2017-03-12T06:30:36.987Z,53.50
2017-03-12T06:31:28.507Z,53.60
2017-03-12T06:32:28.879Z,53.50
2017-03-12T06:33:28.123Z,53.50
2017-03-12T06:34:37.699Z,is
2017-03-12T06:35:29.821Z,53.70
2017-03-12T06:36:28.886Z,53.70
2017-03-12T06:37:28.967Z,53.70
2017-03-12T06:38:44.531Z,53.70
2017-03-12T06:39:37.298Z,53.50
2017-03-12T06:40:27.065Z,53.50
2017-03-12T06:41:32.996Z,53.60
2017-03-12T06:42:37.408Z,53.60
2017-03-12T06:43:28.678Z,53.60
2017-03-12T06:44:29.053Z,53.60
2017-03-12T06:45:33.178Z,53.70
2017-03-12T06:46:29.545Z,53.60
2017-03-12T06:47:28.273Z,53.60
2017-03-12T06:48:28.802Z,53.50
2017-03-12T06:49:28.853Z,53.60
2017-03-12T06:50:33.551Z,53.60
2017-03-12T06:51:27.526Z,53.60
2017-03-12T06:52:36.437Z,53.60
2017-03-12T06:53:26.956Z,53.60
2017-03-12T06:54:37.426Z,53.50
2017-03-12T06:55:28.645Z,53.60
2017-03-12T06:56:38.194Z,53.70
2017-03-12T06:57:29.198Z,is
2017-03-12T06:58:38.853Z,53.60
2017-03-12T06:59:30.369Z,53.60
2017-03-12T07:00:28.911Z,53.60
2017-03-12T07:01:26.996Z,53.70
2017-03-12T07:02:38.608Z,53.60
2017-03-12T07:03:39.434Z,53.70
2017-03-12T07:04:26.389Z,53.70
2017-03-12T07:05:37.425Z,53.60
2017-03-12T07:06:47.376Z,53.60
2017-03-12T07:07:35.075Z,53.70
2017-03-12T07:08:44.969Z,53.70
2017-03-12T07:09:29.857Z,53.70
2017-03-12T07:10:28.540Z,53.70
2017-03-12T07:11:29.159Z,53.70
2017-03-12T07:12:29.521Z,53.70
2017-03-12T07:13:39.209Z,53.70
2017-03-12T07:14:36.185Z,53.70
2017-03-12T07:15:28.670Z,53.70
2017-03-12T07:16:27.333Z,53.70
2017-03-12T07:17:39.126Z,53.70
2017-03-12T07:18:29.210Z,53.60
2017-03-12T07:19:39.088Z,53.70
2017-03-12T07:20:28.315Z,53.60
2017-03-12T07:21:28.922Z,53.60
2017-03-12T07:22:37.603Z,53.70
2017-03-12T07:23:29.069Z,53.70
2017-03-12T07:24:29.332Z,53.70
2017-03-12T07:25:34.735Z,53.70
2017-03-12T07:26:37.186Z,53.70
2017-03-12T07:27:29.012Z,53.70
2017-03-12T07:28:37.634Z,53.70
2017-03-12T07:29:28.988Z,53.70
2017-03-12T07:30:28.570Z,53.70
2017-03-12T07:31:39.209Z,is
2017-03-12T07:32:29.919Z,53.70
2017-03-12T07:33:28.799Z,53.70
2017-03-12T07:34:29.165Z,53.70
2017-03-12T07:35:29.126Z,53.70
2017-03-12T07:36:39.303Z,is
2017-03-12T07:37:35.378Z,53.80
2017-03-12T07:38:27.955Z,53.80
2017-03-12T07:39:38.385Z,53.80
2017-03-12T07:40:28.631Z,53.70
2017-03-12T07:41:28.894Z,53.80
2017-03-12T07:42:38.247Z,53.80
2017-03-12T07:43:29.265Z,53.80
2017-03-12T07:44:29.157Z,53.90
2017-03-12T07:45:39.255Z,54.00
2017-03-12T07:46:47.252Z,53.90
2017-03-12T07:47:28.801Z,53.80
2017-03-12T07:48:27.873Z,53.90
2017-03-12T07:49:27.675Z,is
2017-03-12T07:50:27.940Z,54.00
2017-03-12T07:51:37.506Z,is
2017-03-12T07:52:38.434Z,53.90
2017-03-12T07:53:27.794Z,53.90
2017-03-12T07:54:33.559Z,54.00
2017-03-12T07:55:29.348Z,54.00
2017-03-12T07:56:28.937Z,54.00
2017-03-12T07:57:29.018Z,54.10
2017-03-12T07:58:24.109Z,54.00
2017-03-12T07:59:29.234Z,54.00
2017-03-12T08:00:32.013Z,54.00
2017-03-12T08:01:28.118Z,54.00
2017-03-12T08:02:23.214Z,53.90
2017-03-12T08:03:26.852Z,53.90
2017-03-12T08:04:29.249Z,54.10
2017-03-12T08:05:23.060Z,53.90
2017-03-12T08:06:39.620Z,54.00
2017-03-12T08:07:34.143Z,53.90
2017-03-12T08:08:29.173Z,54.10
2017-03-12T08:09:29.342Z,54.10
2017-03-12T08:10:26.657Z,53.90
2017-03-12T08:11:32.894Z,54.00
2017-03-12T08:12:26.678Z,54.10
2017-03-12T08:13:28.792Z,54.00
2017-03-12T08:14:37.773Z,54.10
2017-03-12T08:15:28.458Z,54.10
2017-03-12T08:16:38.035Z,53.90
2017-03-12T08:17:34.679Z,53.90
2017-03-12T08:18:30.164Z,54.00
2017-03-12T08:19:28.732Z,53.90
2017-03-12T08:20:24.303Z,54.10
2017-03-12T08:21:29.391Z,53.90
2017-03-12T08:22:37.833Z,54.00
2017-03-12T08:23:28.716Z,54.10
2017-03-12T08:24:26.785Z,54.10
2017-03-12T08:25:27.346Z,54.00
2017-03-12T08:26:27.907Z,54.10
2017-03-12T08:27:28.010Z,54.00
2017-03-12T08:28:29.577Z,54.00
2017-03-12T08:29:29.032Z,54.10
2017-03-12T08:30:32.942Z,is
2017-03-12T08:31:28.819Z,53.90
2017-03-12T08:32:29.499Z,53.90
2017-03-12T08:33:40.757Z,53.90
2017-03-12T08:34:27.510Z,54.20
2017-03-12T08:35:27.850Z,is
2017-03-12T08:36:31.422Z,54.00
2017-03-12T08:37:36.113Z,is
2017-03-12T08:38:28.810Z,54.00
2017-03-12T08:39:39.671Z,54.00
2017-03-12T08:40:28.881Z,53.90
2017-03-12T08:41:29.085Z,54.00
2017-03-12T08:42:37.673Z,54.00
2017-03-12T08:43:26.059Z,53.90
2017-03-12T08:44:27.643Z,53.90
2017-03-12T08:45:21.682Z,54.00
2017-03-12T08:46:27.080Z,53.90
2017-03-12T08:47:27.269Z,54.00
2017-03-12T08:48:30.638Z,54.00
2017-03-12T08:49:28.723Z,53.90
2017-03-12T08:50:33.232Z,53.90
2017-03-12T08:51:28.915Z,54.00
2017-03-12T08:52:27.269Z,53.90
2017-03-12T08:53:21.955Z,54.00
2017-03-12T08:54:29.030Z,54.00
2017-03-12T08:55:34.146Z,54.00
2017-03-12T08:56:27.330Z,53.90
2017-03-12T08:57:27.433Z,54.00
2017-03-12T08:58:36.735Z,54.00
2017-03-12T08:59:33.648Z,53.90
2017-03-12T09:00:28.158Z,53.90
2017-03-12T09:01:28.247Z,54.00
2017-03-12T09:02:28.357Z,54.10
2017-03-12T09:03:27.941Z,54.00
2017-03-12T09:04:38.615Z,54.10
2017-03-12T09:05:28.337Z,54.10
2017-03-12T09:06:29.022Z,54.00
2017-03-12T09:07:27.928Z,54.10
2017-03-12T09:08:26.899Z,54.10
2017-03-12T09:09:21.559Z,54.10
2017-03-12T09:10:26.693Z,54.00
2017-03-12T09:11:27.199Z,54.20
2017-03-12T09:12:27.641Z,54.20
2017-03-12T09:13:26.807Z,54.10
2017-03-12T09:14:22.660Z,54.20
2017-03-12T09:15:27.539Z,54.30
2017-03-12T09:16:38.299Z,54.30
2017-03-12T09:17:21.420Z,54.20
2017-03-12T09:18:24.939Z,54.50
2017-03-12T09:19:21.346Z,54.50
2017-03-12T09:20:37.862Z,54.50
2017-03-12T09:21:20.364Z,54.90
2017-03-12T09:22:22.110Z,54.30
2017-03-12T09:23:22.667Z,54.50
2017-03-12T09:24:29.492Z,54.50
2017-03-12T09:25:34.325Z,54.40
2017-03-12T09:26:28.249Z,54.40
2017-03-12T09:27:29.267Z,54.50
2017-03-12T09:28:24.612Z,54.50
2017-03-12T09:29:29.419Z,54.60
2017-03-12T09:30:22.202Z,53.60
2017-03-12T09:31:25.959Z,54.60
2017-03-12T09:32:21.571Z,is
2017-03-12T09:33:25.761Z,54.50
2017-03-12T09:34:22.292Z,54.50
2017-03-12T09:35:35.619Z,54.40
2017-03-12T09:36:37.951Z,is
2017-03-12T09:37:38.889Z,54.30
2017-03-12T09:38:29.052Z,54.30
2017-03-12T09:39:30.374Z,55.00
2017-03-12T09:40:37.525Z,54.90
2017-03-12T09:41:27.922Z,54.50
2017-03-12T09:42:28.117Z,54.30
2017-03-12T09:43:27.886Z,54.40
2017-03-12T09:44:27.308Z,54.40
2017-03-12T09:45:26.598Z,54.30
2017-03-12T09:46:28.831Z,54.40
2017-03-12T09:47:26.046Z,54.30
2017-03-12T09:48:27.579Z,54.30
2017-03-12T09:49:25.989Z,54.30
2017-03-12T09:50:28.730Z,54.20
2017-03-12T09:51:28.925Z,54.40
2017-03-12T09:52:37.651Z,54.30
2017-03-12T09:53:38.955Z,54.70
2017-03-12T09:54:26.800Z,54.40
2017-03-12T09:55:37.210Z,54.30
2017-03-12T09:56:28.514Z,54.40
2017-03-12T09:57:28.906Z,54.50
2017-03-12T09:58:28.752Z,54.30
2017-03-12T09:59:27.001Z,54.30
2017-03-12T10:00:29.925Z,54.40
2017-03-12T10:01:28.417Z,54.50
2017-03-12T10:02:29.227Z,54.40
2017-03-12T10:03:29.109Z,54.40
2017-03-12T10:04:28.836Z,54.40
2017-03-12T10:05:28.989Z,54.40
2017-03-12T10:06:25.783Z,54.50
2017-03-12T10:07:26.759Z,54.60
2017-03-12T10:08:27.312Z,54.50
2017-03-12T10:09:28.058Z,54.50
2017-03-12T10:10:29.499Z,54.60
2017-03-12T10:11:27.636Z,is
2017-03-12T10:12:29.312Z,54.60
2017-03-12T10:13:29.077Z,54.70
2017-03-12T10:14:28.388Z,54.70
2017-03-12T10:15:28.821Z,54.70
2017-03-12T10:16:21.761Z,54.70
2017-03-12T10:17:27.941Z,54.70
2017-03-12T10:18:45.075Z,54.60
2017-03-12T10:19:31.067Z,is
2017-03-12T10:20:46.674Z,54.70
2017-03-12T10:21:25.746Z,54.70
2017-03-12T10:22:44.150Z,54.70
2017-03-12T10:23:28.305Z,54.70
2017-03-12T10:24:29.207Z,54.70
2017-03-12T10:25:28.767Z,54.70
2017-03-12T10:26:23.691Z,54.70
2017-03-12T10:27:36.937Z,54.70
2017-03-12T10:28:28.030Z,54.60
2017-03-12T10:29:31.012Z,54.70
2017-03-12T10:30:31.476Z,54.60
2017-03-12T10:31:27.799Z,54.00
2017-03-12T10:32:28.331Z,54.60
2017-03-12T10:33:28.443Z,54.60
2017-03-12T10:34:29.364Z,54.60
2017-03-12T10:35:29.242Z,54.60
2017-03-12T10:36:28.411Z,54.50
2017-03-12T10:37:28.386Z,54.50
2017-03-12T10:38:28.640Z,54.50
2017-03-12T10:39:27.043Z,54.60
2017-03-12T10:40:27.644Z,54.50
2017-03-12T10:41:28.183Z,54.70
2017-03-12T10:42:27.838Z,54.60
2017-03-12T10:43:43.320Z,54.50
2017-03-12T10:44:27.400Z,54.50
2017-03-12T10:45:29.804Z,54.60
2017-03-12T10:46:28.610Z,54.60
2017-03-12T10:47:29.269Z,54.50
2017-03-12T10:48:29.254Z,54.60
2017-03-12T10:49:27.619Z,54.70
2017-03-12T10:50:28.639Z,54.60
2017-03-12T10:51:27.773Z,54.60
2017-03-12T10:52:29.404Z,54.60
2017-03-12T10:53:37.306Z,54.60
2017-03-12T10:54:29.218Z,54.60
2017-03-12T10:55:30.338Z,54.70
2017-03-12T10:56:33.947Z,54.60
2017-03-12T10:57:28.921Z,54.60
2017-03-12T10:58:27.547Z,54.50
2017-03-12T10:59:38.077Z,54.50
2017-03-12T11:00:28.856Z,54.60
2017-03-12T11:01:28.966Z,54.50
2017-03-12T11:02:23.321Z,54.70
2017-03-12T11:03:31.566Z,54.60
2017-03-12T11:04:27.831Z,54.60
2017-03-12T11:05:27.864Z,54.50
2017-03-12T11:06:28.912Z,54.60
2017-03-12T11:07:36.771Z,54.60
2017-03-12T11:08:35.984Z,54.50
2017-03-12T11:09:29.035Z,54.50
2017-03-12T11:10:38.740Z,54.50
2017-03-12T11:11:28.705Z,54.50
2017-03-12T11:12:33.689Z,54.60
2017-03-12T11:13:37.156Z,is
2017-03-12T11:14:37.254Z,54.80
2017-03-12T11:15:33.451Z,54.60
2017-03-12T11:16:27.838Z,54.60
2017-03-12T11:17:27.883Z,54.50
2017-03-12T11:18:28.751Z,54.40
2017-03-12T11:19:38.129Z,54.50
2017-03-12T11:20:39.050Z,54.50
2017-03-12T11:21:33.809Z,54.60
2017-03-12T11:22:29.150Z,is
2017-03-12T11:23:29.092Z,54.50
2017-03-12T11:24:28.930Z,54.50
2017-03-12T11:25:39.662Z,54.50
2017-03-12T11:26:27.081Z,54.50
2017-03-12T11:27:39.013Z,54.50
2017-03-12T11:28:28.585Z,54.60
2017-03-12T11:29:34.885Z,54.60
2017-03-12T11:30:28.194Z,54.70
2017-03-12T11:31:28.167Z,55.10
2017-03-12T11:32:31.159Z,54.70
2017-03-12T11:33:27.562Z,54.80
2017-03-12T11:34:28.769Z,54.70
2017-03-12T11:35:38.383Z,54.60
2017-03-12T11:36:30.216Z,54.70
2017-03-12T11:37:31.066Z,54.70
2017-03-12T11:38:26.549Z,54.70
2017-03-12T11:39:27.928Z,54.80
2017-03-12T11:40:33.970Z,54.70
2017-03-12T11:41:24.495Z,54.70
2017-03-12T11:42:38.128Z,54.80
2017-03-12T11:43:27.188Z,54.70
2017-03-12T11:44:28.125Z,54.90
2017-03-12T11:45:28.155Z,54.80
2017-03-12T11:46:24.184Z,54.70
2017-03-12T11:47:37.791Z,54.20
2017-03-12T11:48:31.681Z,54.00
2017-03-12T11:49:34.150Z,54.00
2017-03-12T11:50:27.411Z,53.90
2017-03-12T11:51:26.496Z,54.10
2017-03-12T11:52:28.687Z,53.40
2017-03-12T11:53:28.138Z,53.30
2017-03-12T11:54:28.943Z,53.10
2017-03-12T11:55:37.677Z,52.90
2017-03-12T11:56:28.753Z,52.90
2017-03-12T11:57:28.364Z,52.80
2017-03-12T11:58:28.154Z,52.70
2017-03-12T11:59:28.754Z,is
2017-03-12T12:00:29.365Z,52.70
2017-03-12T12:01:27.235Z,52.60
2017-03-12T12:02:27.764Z,52.40
2017-03-12T12:03:38.497Z,52.60
2017-03-12T12:04:32.870Z,is
2017-03-12T12:05:22.334Z,52.30
2017-03-12T12:06:17.144Z,52.40
2017-03-12T12:07:15.925Z,52.30
2017-03-12T12:08:17.144Z,52.50
2017-03-12T12:09:16.793Z,52.20
2017-03-12T12:10:16.775Z,52.30
2017-03-12T12:11:18.436Z,52.20
2017-03-12T12:12:19.610Z,52.30
2017-03-12T12:13:20.341Z,52.00
2017-03-12T12:14:15.399Z,51.20
2017-03-12T12:15:16.720Z,49.50
2017-03-12T12:16:21.795Z,49.40
2017-03-12T12:17:18.961Z,49.00
2017-03-12T12:18:23.920Z,48.10
2017-03-12T12:20:18.940Z,45.00
2017-03-12T12:21:17.359Z,45.10
2017-03-12T12:22:24.189Z,44.20
2017-03-12T12:23:20.897Z,43.70
2017-03-12T12:24:20.404Z,43.60
2017-03-12T12:26:27.870Z,42.50
2017-03-12T12:27:30.038Z,42.70
2017-03-12T12:28:26.962Z,42.50
2017-03-12T12:29:25.382Z,42.20
2017-03-12T12:30:23.241Z,42.60
2017-03-12T12:31:23.359Z,42.60
2017-03-12T12:32:16.955Z,42.80
2017-03-12T12:33:19.820Z,41.50
2017-03-12T12:34:24.417Z,is
2017-03-12T12:35:35.037Z,41.80
2017-03-12T12:36:36.681Z,41.50
2017-03-12T12:37:27.856Z,40.90
2017-03-12T12:38:28.256Z,40.80
2017-03-12T12:39:21.682Z,40.60
2017-03-12T12:40:28.085Z,39.70
2017-03-12T12:41:35.946Z,40.00
2017-03-12T12:42:27.906Z,39.00
2017-03-12T12:43:27.433Z,39.00
2017-03-12T12:44:26.752Z,38.90
2017-03-12T12:45:25.703Z,38.90
2017-03-12T12:46:21.421Z,39.40
2017-03-12T12:47:26.955Z,39.90
2017-03-12T12:48:26.523Z,is
2017-03-12T12:49:28.415Z,41.00
2017-03-12T12:50:25.174Z,41.20
2017-03-12T12:51:22.856Z,41.60
2017-03-12T12:52:16.869Z,41.90
2017-03-12T12:53:38.767Z,42.00
2017-03-12T12:54:24.549Z,42.20
2017-03-12T12:55:30.827Z,42.20
2017-03-12T12:56:20.556Z,42.50
2017-03-12T12:57:15.752Z,42.70
2017-03-12T12:58:17.127Z,42.70
2017-03-12T12:59:16.396Z,43.00
2017-03-12T13:00:17.393Z,43.20
2017-03-12T13:01:21.924Z,43.30
2017-03-12T13:02:24.377Z,43.50
2017-03-12T13:03:21.421Z,43.60
2017-03-12T13:04:17.860Z,43.80
2017-03-12T13:05:20.592Z,43.70
2017-03-12T13:06:21.508Z,44.00
2017-03-12T13:07:18.114Z,44.10